Time;durP1;ratioP1;P1;durP2;ratioP2;P2;SDS_P1;SDS_P2;PMS_P1;PMS_P2;Temp;Humidity;BMP_temperature;BMP_pressure;BME280_temperature;BME280_humidity;BME280_pressure;Samples;Min_cycle;Max_cycle;Signal;HPM_P1;HPM_P2
2022/08/08 03:41:12;;;;;;;2.50;1.90;;;;;;;20.58;59.91;100662.44;6531495;26;883519;-88
2022/08/08 03:44:39;;;;;;;1.42;1.27;;;;;;;20.61;59.78;100667.44;6609857;27;34018;-88
2022/08/08 03:48:01;;;;;;;3.05;1.40;;;;;;;20.62;59.11;100671.00;6609060;27;34705;-88
2022/08/08 03:51:05;;;;;;;2.78;1.65;;;;;;;20.69;58.94;100662.69;6605757;27;33283;-88
2022/08/08 03:54:08;;;;;;;1.92;1.65;;;;;;;20.76;58.45;100664.22;6607807;26;34372;-88
2022/08/08 03:57:17;;;;;;;2.80;1.75;;;;;;;20.80;58.58;100661.88;6606677;27;34782;-88
2022/08/08 04:00:48;;;;;;;2.97;1.87;;;;;;;20.81;59.10;100667.09;6621790;27;33852;-88
2022/08/08 04:04:11;;;;;;;1.60;1.50;;;;;;;20.86;59.67;100660.91;6606762;27;32361;-91
2022/08/08 04:07:17;;;;;;;2.58;1.62;;;;;;;20.87;59.77;100654.37;6607422;27;34588;-89
2022/08/08 04:10:23;;;;;;;1.50;1.40;;;;;;;20.91;59.02;100654.72;6608744;27;34633;-88
2022/08/08 04:13:26;;;;;;;1.98;1.67;;;;;;;20.88;59.69;100663.41;6605610;27;32740;-88
2022/08/08 04:16:34;;;;;;;1.67;1.58;;;;;;;20.82;59.77;100662.44;6606867;27;34764;-88
2022/08/08 04:19:42;;;;;;;3.25;1.50;;;;;;;20.81;59.10;100656.16;6606818;27;34563;-88
2022/08/08 04:22:45;;;;;;;1.90;1.50;;;;;;;20.76;59.20;100650.56;6607006;27;33925;-88
2022/08/08 04:25:53;;;;;;;2.22;1.73;;;;;;;20.82;58.66;100665.19;6606461;27;34241;-88
2022/08/08 04:28:57;;;;;;;2.12;1.85;;;;;;;20.91;58.22;100669.22;6605816;27;32387;-88
2022/08/08 04:32:00;;;;;;;1.90;1.77;;;;;;;20.91;58.69;100688.37;6607512;27;33863;-88
2022/08/08 04:35:04;;;;;;;1.92;1.80;;;;;;;20.94;58.60;100693.41;6608632;27;33749;-88
2022/08/08 04:38:14;;;;;;;1.98;1.65;;;;;;;20.93;58.20;100694.47;6609105;27;34311;-88
2022/08/08 04:41:24;;;;;;;1.52;1.42;;;;;;;20.94;57.23;100678.88;6608166;27;34110;-88
2022/08/08 04:44:39;;;;;;;3.12;1.90;;;;;;;21.02;56.86;100684.81;6580414;27;33735;-88
2022/08/08 04:47:42;;;;;;;2.53;1.75;;;;;;;21.02;57.60;100689.44;6578632;27;33621;-87
2022/08/08 04:50:50;;;;;;;3.05;1.80;;;;;;;21.03;58.40;100696.59;6580586;27;33984;-88
2022/08/08 04:53:54;;;;;;;2.90;1.67;;;;;;;21.04;58.11;100696.34;6580144;27;34368;-87
2022/08/08 04:57:17;;;;;;;2.10;1.90;;;;;;;21.06;58.42;100696.12;6581095;27;33803;-88
2022/08/08 05:00:24;;;;;;;2.45;1.80;;;;;;;21.10;58.69;100704.69;6584972;27;34891;-88
2022/08/08 05:03:27;;;;;;;2.40;1.60;;;;;;;21.16;57.94;100695.53;6581989;27;32323;-88
2022/08/08 05:06:50;;;;;;;1.75;1.65;;;;;;;21.25;57.07;100692.16;6582463;27;34127;-90
2022/08/08 05:09:54;;;;;;;2.78;1.42;;;;;;;21.31;56.16;100698.59;6585589;27;35542;-91
2022/08/08 05:13:01;;;;;;;3.22;1.50;;;;;;;21.41;55.00;100689.78;6579705;27;34586;-91
2022/08/08 05:16:07;;;;;;;2.17;1.55;;;;;;;21.55;54.30;100693.06;6579826;27;34521;-88
2022/08/08 05:19:30;;;;;;;1.50;1.40;;;;;;;21.60;54.18;100690.44;6580437;27;33986;-88
2022/08/08 05:22:53;;;;;;;2.55;1.65;;;;;;;21.63;54.56;100689.97;6580434;27;34742;-88
2022/08/08 05:26:01;;;;;;;2.80;1.42;;;;;;;21.73;54.44;100687.41;6580988;27;34226;-88
2022/08/08 05:29:07;;;;;;;1.58;1.30;;;;;;;21.89;54.23;100694.87;6580649;27;33803;-88
2022/08/08 05:32:13;;;;;;;1.40;1.30;;;;;;;21.93;54.12;100696.03;6582384;27;34236;-88
2022/08/08 05:35:17;;;;;;;3.33;1.62;;;;;;;22.04;52.08;100696.22;6579837;27;34261;-88
2022/08/08 05:38:28;;;;;;;1.25;1.15;;;;;;;22.20;51.30;100698.22;6579331;27;33764;-87
2022/08/08 05:41:35;;;;;;;3.03;1.52;;;;;;;22.32;50.44;100698.97;6578181;27;33944;-87
2022/08/08 05:45:01;;;;;;;1.17;1.17;;;;;;;22.35;50.21;100701.22;6577426;27;32557;-87
2022/08/08 05:48:24;;;;;;;1.33;1.00;;;;;;;22.35;49.09;100706.69;6579002;27;34469;-88
2022/08/08 05:51:33;;;;;;;2.50;1.20;;;;;;;22.55;48.46;100706.22;6578817;27;34021;-87
2022/08/08 05:54:51;;;;;;;1.07;1.07;;;;;;;22.67;48.60;100702.53;6579382;27;34250;-91
2022/08/08 05:58:05;;;;;;;2.12;1.45;;;;;;;22.68;48.94;100702.31;6581570;27;34837;-87
2022/08/08 06:01:22;;;;;;;4.18;1.37;;;;;;;22.65;50.31;100708.28;6577299;27;34053;-87
2022/08/08 06:04:53;;;;;;;1.85;1.75;;;;;;;22.80;48.73;100696.72;6580515;27;34739;-87
2022/08/08 06:07:57;;;;;;;2.67;1.50;;;;;;;22.78;48.89;100702.44;6596221;27;35666;-87
2022/08/08 06:11:07;;;;;;;2.70;1.48;;;;;;;22.76;48.67;100707.38;6592670;27;35439;-87
2022/08/08 06:14:15;;;;;;;2.00;1.77;;;;;;;22.79;47.95;100708.78;6583778;27;34115;-88
2022/08/08 06:17:21;;;;;;;1.52;1.20;;;;;;;22.80;47.44;100708.53;6579372;27;33898;-88
2022/08/08 06:20:44;;;;;;;3.37;1.40;;;;;;;22.77;46.45;100703.53;6581706;27;34235;-87
2022/08/08 06:23:52;;;;;;;1.13;1.03;;;;;;;22.92;46.27;100699.38;6563837;27;32880;-88
2022/08/08 06:27:09;;;;;;;1.12;1.05;;;;;;;23.18;45.66;100703.34;6579487;27;34428;-88
2022/08/08 06:30:14;;;;;;;1.10;1.10;;;;;;;23.45;44.98;100703.41;6559357;27;33419;-87
2022/08/08 06:33:37;;;;;;;37.95;3.60;;;;;;;23.64;43.74;100703.94;6576944;27;32775;-87
2022/08/08 06:37:02;;;;;;;9.90;1.85;;;;;;;23.89;43.85;100711.66;6578603;27;34017;-87
2022/08/08 06:40:28;;;;;;;9.00;1.77;;;;;;;23.85;42.93;100722.34;6578279;27;34031;-87
2022/08/08 06:43:36;;;;;;;2.75;2.42;;;;;;;23.79;42.86;100717.91;6577988;27;34737;-87
2022/08/08 06:46:39;;;;;;;6.72;1.23;;;;;;;23.77;41.71;100706.31;6578055;27;32547;-87
2022/08/08 06:49:45;;;;;;;3.65;2.72;;;;;;;23.77;41.83;100709.88;6579581;27;34684;-87
2022/08/08 06:53:03;;;;;;;2.35;2.15;;;;;;;23.81;41.62;100714.87;6578320;27;32980;-87
2022/08/08 06:56:23;;;;;;;1.00;1.00;;;;;;;23.92;41.71;100713.91;6578561;27;33484;-87
2022/08/08 06:59:28;;;;;;;1.95;1.20;;;;;;;23.65;40.86;100703.66;6581920;27;33793;-87
2022/08/08 07:02:53;;;;;;;2.58;1.30;;;;;;;23.66;41.17;100719.06;6583680;27;33865;-86
2022/08/08 07:06:02;;;;;;;3.03;2.03;;;;;;;23.63;40.99;100716.84;6584850;27;34813;-86
2022/08/08 07:09:13;;;;;;;2.22;1.25;;;;;;;23.60;40.96;100714.59;6581635;27;35106;-87
2022/08/08 07:12:31;;;;;;;1.08;0.90;;;;;;;23.61;40.80;100716.28;6583677;27;34584;-87
2022/08/08 07:15:50;;;;;;;2.55;1.12;;;;;;;23.65;41.03;100719.34;6580013;27;35317;-91
2022/08/08 07:19:28;;;;;;;0.93;0.93;;;;;;;23.56;40.38;100707.97;6579587;27;34525;-87
2022/08/08 07:22:48;;;;;;;1.23;1.12;;;;;;;23.85;40.55;100716.84;6579801;27;33613;-87
2022/08/08 07:25:52;;;;;;;;;;;;;;;23.89;40.11;100714.41;6578542;27;33895;-87
2022/08/08 07:28:59;;;;;;;1.85;0.95;;;;;;;24.11;40.52;100714.41;6580370;27;36424;-87
2022/08/08 07:32:11;;;;;;;1.40;1.15;;;;;;;24.25;39.60;100720.28;6580519;27;34647;-87
2022/08/08 07:35:20;;;;;;;3.83;1.00;;;;;;;24.60;39.65;100722.56;6576736;27;32884;-87
2022/08/08 07:38:24;;;;;;;1.95;1.45;;;;;;;24.76;39.35;100729.03;6580009;27;35291;-87
2022/08/08 07:41:29;;;;;;;2.60;1.20;;;;;;;24.83;38.95;100713.94;6577650;27;32558;-87
2022/08/08 07:44:52;;;;;;;1.15;1.00;;;;;;;24.86;38.84;100718.94;6579072;27;34000;-87
2022/08/08 07:47:57;;;;;;;3.67;1.12;;;;;;;25.25;38.67;100723.34;6579660;27;34023;-87
2022/08/08 07:51:02;;;;;;;1.45;1.20;;;;;;;25.33;38.47;100734.69;6577961;27;32502;-87
2022/08/08 07:54:16;;;;;;;4.47;1.40;;;;;;;25.50;38.11;100731.72;6579430;27;34344;-87
2022/08/08 07:57:58;;;;;;;1.33;1.10;;;;;;;25.67;37.65;100727.94;6579826;27;34460;-88
2022/08/08 08:01:19;;;;;;;1.73;1.05;;;;;;;25.41;37.96;100730.56;6548638;27;33595;-87
2022/08/08 08:04:33;;;;;;;1.12;1.00;;;;;;;25.60;38.24;100738.41;6582794;27;35340;-87
2022/08/08 08:07:47;;;;;;;2.08;1.25;;;;;;;25.75;36.92;100738.44;6584395;27;34169;-87
2022/08/08 08:10:57;;;;;;;1.15;1.05;;;;;;;26.08;37.35;100741.87;6582139;27;34437;-87
2022/08/08 08:14:07;;;;;;;5.72;2.70;;;;;;;26.27;35.79;100739.44;6593032;27;34102;-87
2022/08/08 08:17:17;;;;;;;2.72;1.33;;;;;;;26.43;35.86;100747.47;6600350;27;35544;-87
2022/08/08 08:20:29;;;;;;;1.87;0.95;;;;;;;26.43;35.25;100735.59;6599843;27;35637;-87
2022/08/08 08:23:34;;;;;;;1.80;0.95;;;;;;;26.48;35.56;100740.31;6585427;27;34076;-87
2022/08/08 08:26:43;;;;;;;1.75;1.45;;;;;;;26.39;35.93;100740.00;6580186;27;32145;-87
2022/08/08 08:29:56;;;;;;;2.90;1.30;;;;;;;26.39;36.04;100738.06;6581335;27;34524;-86
2022/08/08 08:32:59;;;;;;;5.75;1.33;;;;;;;26.92;35.26;100738.66;6595509;27;33988;-87
2022/08/08 08:36:04;;;;;;;1.20;1.08;;;;;;;27.31;34.83;100743.56;6580877;27;34872;-86
2022/08/08 08:39:23;;;;;;;1.77;0.93;;;;;;;27.86;33.26;100737.31;6579146;27;34094;-87
2022/08/08 08:42:48;;;;;;;1.35;1.25;;;;;;;27.95;33.44;100739.19;6577688;27;34044;-87
2022/08/08 08:45:55;;;;;;;1.45;0.80;;;;;;;28.20;32.80;100741.00;6580327;27;33976;-87
2022/08/08 08:49:00;;;;;;;9.20;1.65;;;;;;;28.55;32.63;100744.66;6578665;27;32873;-88
2022/08/08 08:52:04;;;;;;;3.33;1.27;;;;;;;28.89;32.39;100752.09;6578733;27;33277;-88
2022/08/08 08:55:12;;;;;;;1.33;0.90;;;;;;;29.41;31.89;100744.94;6579895;27;34023;-86
2022/08/08 08:58:34;;;;;;;2.20;1.08;;;;;;;29.46;31.64;100755.16;6579571;27;34228;-86
2022/08/08 09:01:42;;;;;;;2.75;1.00;;;;;;;29.50;31.71;100748.72;6581297;27;34022;-86
2022/08/08 09:04:50;;;;;;;1.48;1.27;;;;;;;29.62;30.84;100740.00;6581097;27;32525;-86
2022/08/08 09:07:58;;;;;;;3.53;1.42;;;;;;;29.40;31.32;100746.09;6584476;27;32681;-87
2022/08/08 09:11:21;;;;;;;6.07;1.17;;;;;;;29.04;32.17;100752.00;6583678;27;33983;-87
2022/08/08 09:14:25;;;;;;;3.03;1.50;;;;;;;28.21;33.25;100750.13;6579977;27;32530;-87
2022/08/08 09:17:29;;;;;;;3.25;1.20;;;;;;;28.04;33.69;100751.31;6577265;27;32638;-87
2022/08/08 09:20:45;;;;;;;3.37;1.55;;;;;;;27.72;34.36;100750.91;6580424;27;33761;-86
2022/08/08 09:24:09;;;;;;;3.70;1.80;;;;;;;27.51;35.28;100750.16;6581584;27;33788;-87
2022/08/08 09:27:16;;;;;;;2.87;1.20;;;;;;;27.27;35.72;100748.03;6579618;27;34141;-87
2022/08/08 09:30:25;;;;;;;2.25;1.90;;;;;;;27.07;36.00;100748.03;6579390;27;33660;-87
2022/08/08 09:33:31;;;;;;;1.90;1.40;;;;;;;27.16;36.03;100740.03;6579493;27;34486;-87
2022/08/08 09:37:02;;;;;;;1.10;1.10;;;;;;;27.12;35.89;100759.09;6579194;27;34041;-86
2022/08/08 09:40:27;;;;;;;2.55;1.58;;;;;;;26.94;36.54;100757.72;6579618;27;34297;-87
2022/08/08 09:43:56;;;;;;;4.28;1.05;;;;;;;26.86;36.76;100759.09;6579129;27;33525;-87
2022/08/08 09:47:14;;;;;;;5.57;1.58;;;;;;;26.95;36.98;100753.84;6578474;27;33854;-88
2022/08/08 09:50:39;;;;;;;3.17;1.50;;;;;;;27.36;36.57;100748.28;6579696;27;34724;-88
2022/08/08 09:53:55;;;;;;;1.98;1.50;;;;;;;27.23;36.11;100752.47;6578955;27;35479;-91
2022/08/08 09:57:21;;;;;;;3.42;1.65;;;;;;;27.11;36.70;100738.87;6577888;27;32402;-86
2022/08/08 10:00:30;;;;;;;1.52;1.40;;;;;;;27.35;36.68;100732.81;6578366;27;33922;-86
2022/08/08 10:03:53;;;;;;;1.85;1.40;;;;;;;27.31;36.54;100743.56;6577173;27;33959;-86
2022/08/08 10:07:01;;;;;;;1.37;1.20;;;;;;;27.19;36.67;100733.94;6578449;27;34734;-86
2022/08/08 10:10:09;;;;;;;1.50;1.40;;;;;;;27.26;36.72;100731.69;6578172;27;33914;-86
2022/08/08 10:13:22;;;;;;;1.70;1.60;;;;;;;27.11;37.02;100733.34;6578487;27;34357;-85
2022/08/08 10:16:38;;;;;;;3.42;1.62;;;;;;;27.13;36.71;100733.09;6578240;27;34165;-85
2022/08/08 10:19:41;;;;;;;1.50;1.40;;;;;;;27.09;37.02;100732.00;6576970;27;32944;-85
2022/08/08 10:23:05;;;;;;;1.45;1.27;;;;;;;27.16;36.74;100735.31;6580179;27;34807;-85
2022/08/08 10:26:54;;;;;;;1.83;1.62;;;;;;;27.12;37.07;100740.56;6579306;27;33849;-85
2022/08/08 10:30:05;;;;;;;3.50;1.57;;;;;;;27.35;37.05;100741.91;6477683;27;32140;-85
2022/08/08 10:33:08;;;;;;;2.20;1.40;;;;;;;27.61;36.32;100738.22;6598512;27;34313;-85
2022/08/08 10:36:15;;;;;;;3.25;1.60;;;;;;;27.69;35.82;100737.63;6591630;27;35307;-85
2022/08/08 10:39:27;;;;;;;1.52;1.42;;;;;;;27.83;36.10;100735.94;6580500;27;34588;-85
2022/08/08 10:43:03;;;;;;;2.20;1.30;;;;;;;27.98;36.10;100735.03;6577756;27;33797;-85
2022/08/08 10:46:25;;;;;;;1.52;1.42;;;;;;;27.94;36.14;100728.44;6577636;27;34040;-85
2022/08/08 10:49:32;;;;;;;2.58;1.70;;;;;;;27.67;36.39;100726.88;6579861;27;34017;-85
2022/08/08 10:53:00;;;;;;;1.95;1.58;;;;;;;27.61;36.26;100716.91;6577622;27;32727;-85
2022/08/08 10:56:03;;;;;;;1.77;1.42;;;;;;;27.63;36.56;100719.41;6579455;27;33745;-85
2022/08/08 10:59:09;;;;;;;3.28;1.52;;;;;;;27.61;36.73;100719.69;6579850;27;32945;-85
2022/08/08 11:02:30;;;;;;;3.42;1.40;;;;;;;27.47;37.13;100718.66;6583215;27;33613;-85
2022/08/08 11:05:41;;;;;;;3.03;1.55;;;;;;;27.31;37.65;100709.56;6583326;27;34692;-88
2022/08/08 11:08:43;;;;;;;6.05;1.77;;;;;;;27.32;38.06;100714.84;6585067;27;34350;-90
2022/08/08 11:11:57;;;;;;;1.70;1.50;;;;;;;27.56;38.08;100716.97;6584312;27;33849;-86
2022/08/08 11:15:12;;;;;;;2.90;2.12;;;;;;;27.80;37.70;100717.97;6581423;27;34178;-85
2022/08/08 11:18:18;;;;;;;1.60;1.50;;;;;;;28.24;37.19;100717.16;6579855;27;34173;-86
2022/08/08 11:21:22;;;;;;;1.67;1.58;;;;;;;29.09;35.84;100717.84;6579244;27;34118;-86
2022/08/08 11:24:41;;;;;;;5.03;1.95;;;;;;;29.23;35.58;100716.03;6578013;27;33788;-86
2022/08/08 11:27:50;;;;;;;1.65;1.55;;;;;;;29.11;36.59;100722.00;6578445;27;32615;-86
2022/08/08 11:30:56;;;;;;;2.10;1.73;;;;;;;29.20;36.56;100724.13;6577492;27;32324;-86
2022/08/08 11:34:03;;;;;;;2.37;2.20;;;;;;;29.83;35.71;100737.78;6580939;27;33600;-86
2022/08/08 11:37:27;;;;;;;2.00;1.70;;;;;;;30.49;35.05;100731.28;6578928;27;32540;-85
2022/08/08 11:40:52;;;;;;;2.50;1.92;;;;;;;30.30;36.11;100719.34;6580402;27;33653;-86
2022/08/08 11:43:55;;;;;;;2.97;2.78;;;;;;;30.88;35.66;100727.31;6579789;27;32224;-86
2022/08/08 11:47:01;;;;;;;5.55;2.20;;;;;;;30.94;36.27;100726.06;6579643;27;34442;-86
2022/08/08 11:50:18;;;;;;;3.35;2.25;;;;;;;29.97;38.74;100735.09;6580867;27;33918;-86
2022/08/08 11:53:26;;;;;;;2.22;2.12;;;;;;;29.72;40.12;100726.00;6576925;27;32790;-90
2022/08/08 11:56:33;;;;;;;2.37;2.17;;;;;;;29.55;40.62;100736.75;6577367;27;32726;-90
2022/08/08 11:59:43;;;;;;;2.43;2.23;;;;;;;28.01;43.86;100731.69;6577222;27;32530;-86
2022/08/08 12:03:19;;;;;;;2.92;2.30;;;;;;;27.37;45.75;100736.09;6576792;27;34018;-86
2022/08/08 12:06:23;;;;;;;2.67;2.47;;;;;;;27.09;47.25;100732.81;6576758;27;32389;-86
2022/08/08 12:09:27;;;;;;;3.83;2.62;;;;;;;26.71;47.99;100728.75;6577330;27;33429;-85
